Tiempo atmosférico en la estación meteorológica de Lugo, Lugo (442 m.)



Fecha
DESCASC
Temp. máxima en grados centígrados (hora)
DESCASC
Temp. mínima en grados centígrados (hora)
DESCASC
Temp. media en grados centígrados
DESCASC
Racha de viento máxima en m/sg (hora)
DESCASC
Velocidad máxima media en intervalos de 10 minutos(hora)
DESCASC
Precipitaciones diarias en mm
DESCASC
Precipitaciones de 00:00 a 06:00 en mm
DESCASC
Precipitaciones de 06:00 a 12:00 en mm
DESCASC
Precipitaciones de 12:00 a 18:00 en mm
DESCASC
Precipitaciones de 18:00 a 24:00 en mm
DESCASC
27-01-2020 10.4 (13:10) 8.6 (03:00) 9.5 8.89 (03:10) 3.06 (22:50) 16.2 5 8.4 1 1.8
26-01-2020 11.1 (16:10) 1.6 (06:00) 6.4 7.5 (23:59) 1.94 (13:00) 0 0 0 0 0
25-01-2020 11.5 (15:00) -0.5 (-00:0) 5.5 2.5 (21:30) 1.11 (21:30) 0 0 0 0 0
24-01-2020 12.4 (16:50) 0.4 (00:00) 6.4 4.17 (16:40) 1.67 (15:20) 0 0 0 0 0
23-01-2020 11.9 (17:40) 0.8 (00:00) 6.3 4.72 (04:10) 2.22 (04:10) 0.2 0 0.2 0 0
22-01-2020 11.1 (14:10) 6.1 (00:00) 8.6 12.22 (10:10) 5.28 (11:50) -- -- 0 0 0.8
21-01-2020 8 (12:50) 3.1 (00:00) 5.5 14.72 (12:40) 6.11 (14:40) -- -- -- -- --
20-01-2020 7.2 (15:20) 3.5 (00:00) 5.3 19.44 (13:20) 8.89 (13:20) -- -- -- -- --
19-01-2020 9.3 (13:50) 4.9 (00:00) 7.1 14.17 (13:30) 5.56 (13:30) -- -- -- -- --
18-01-2020 12.9 (13:10) 5.9 (00:00) 9.4 12.5 (17:10) 5.28 (13:40) -- -- -- -- --
17-01-2020 9.2 (15:30) 3.6 (00:00) 6.4 6.67 (02:00) 3.06 (15:00) -- -- -- -- --
16-01-2020 13.3 (11:30) 7.3 (00:00) 10.3 13.61 (17:40) 5.56 (17:40) -- -- -- -- --
15-01-2020 12.6 (16:50) 8 (00:00) 10.3 10 (07:20) 3.33 (03:20) -- -- -- -- --
14-01-2020 13.6 (13:30) 9.2 (00:00) 11.4 11.11 (22:10) 3.61 (21:50) -- -- -- -- --
13-01-2020 10.6 (16:10) 4.4 (00:00) 7.5 11.39 (21:00) 3.33 (22:00) 0.2 0 0 0.2 0
12-01-2020 11.8 (17:20) -2 (-00:0) 4.9 3.61 (12:30) 2.22 (13:20) 0 0 0 0 0
11-01-2020 9.6 (16:30) -1.1 (-00:0) 4.3 4.17 (16:20) 2.22 (13:00) 0 0 0 0 0
10-01-2020 9.4 (14:50) 1.3 (00:00) 5.3 5.83 (14:10) 2.5 (15:10) 0.4 0.2 0.2 0 0
09-01-2020 13.3 (13:20) 4.6 (00:00) 9 13.61 (14:30) 6.11 (14:30) 1.8 0 0 1.8 0
08-01-2020 14 (15:50) 3.8 (00:00) 8.9 3.89 (00:50) 2.5 (00:50) 0 0 0 0 0
07-01-2020 11.3 (17:20) -2.2 (-00:0) 4.6 4.17 (14:30) 2.22 (09:30) 0.2 0 0.2 0 0
06-01-2020 7.2 (17:20) -2.2 (-00:0) 2.5 4.44 (14:10) 2.5 (14:00) 0 0 0 0 0
05-01-2020 8.7 (17:20) 1 (00:00) 4.8 3.61 (00:10) 1.67 (11:10) 0 0 0 0 0
04-01-2020 7.6 (14:50) 2.6 (00:00) 5.1 3.61 (12:00) 1.94 (12:00) 0 0 0 0 0
03-01-2020 11.7 (15:40) 4.8 (00:00) 8.3 4.72 (01:00) 2.22 (01:00) 1 0 1 0 0
02-01-2020 10.3 (16:30) -2.5 (-00:0) 3.9 5 (16:30) 2.22 (16:30) 0.2 0 0.2 0 0
01-01-2020 4.6 (17:20) -0.7 (-00:0) 1.9 3.33 (07:40) 1.67 (07:40) 0.2 0.2 0 0 0
31-12-2019 7 (15:20) -0.2 (00:00) 3.4 3.33 (04:40) 1.39 (04:40) 0 0 0 0 0
30-12-2019 -- (--) -- (--) -- -- (--) -- (--) -- 0 0 -- 0

Gráficas

Temp. máximas Temp. mínimas Temp. medias Precipitaciones Rachas de viento máximas Velocidades máximas media en intervalos de 10 minutos

Datos horarios

Fecha y hora oficial Temperatura (ºC) Velocidad del viento (km/h) Dirección del viento Racha (km/h) Dirección de racha Precipitación (mm) Presión (hPa) Tendencia (hPa) Humedad (%)
2020-01-28 23:00:00 -- -- -- -- -- -- -- -- --
2020-01-28 22:00:00 -- -- -- -- -- -- -- -- --
2020-01-28 21:00:00 -- -- -- -- -- -- -- -- --
2020-01-28 20:00:00 10.2 3 Sudeste 8 Sudeste 0.4 -- -- 95
2020-01-28 19:00:00 10.5 3 Sudeste 5 Sudeste 0.4 -- -- 93
2020-01-28 18:00:00 10.9 0 Calma 6 Sur 0.4 -- -- 92
2020-01-28 17:00:00 11.1 0 Calma 7 Oeste 0 -- -- 90
2020-01-28 16:00:00 11.3 3 Sudoeste 11 Oeste 0 -- -- 85
2020-01-28 15:00:00 11.3 0 Calma 15 Oeste 0 -- -- 83
2020-01-28 14:00:00 11.6 3 Sur 11 Sur 0 -- -- 81
2020-01-28 13:00:00 11.3 3 Sur 14 Sudoeste 0 -- -- 78
2020-01-28 12:00:00 10.1 3 Sudoeste 11 Oeste 0 -- -- 82
2020-01-28 11:00:00 8.9 0 Calma 6 Sur 0 -- -- 89
2020-01-28 10:00:00 7.6 2 Sur 5 Sur 0 -- -- 93
2020-01-28 09:00:00 6.8 0 Calma 8 Sudeste 0 -- -- 92
2020-01-28 08:00:00 6.9 2 Sudeste 7 Sur 0 -- -- 91
2020-01-28 07:00:00 6.6 2 Sudeste 9 Sur 0 -- -- 90
2020-01-28 06:00:00 7.2 3 Sudeste 7 Sur 0 -- -- 88
2020-01-28 05:00:00 7.3 3 Sur 14 Oeste 0 -- -- 87
2020-01-28 04:00:00 8.1 6 Sudoeste 18 Oeste 0 -- -- 86
2020-01-28 03:00:00 8.1 2 Sudoeste 12 Oeste 0 -- -- 89
2020-01-28 02:00:00 8.8 5 Oeste 14 Oeste 0 -- -- 84
2020-01-28 01:00:00 9.2 3 Noroeste 17 Oeste 0 -- -- 86
2020-01-28 00:00:00 10 8 Oeste 22 Oeste 0 -- -- 89
2020-01-27 23:00:00 10.2 9 Oeste 22 Oeste 0.2 -- -- 94
2020-01-27 22:00:00 9.6 4 Sudoeste 15 Oeste 0.4 -- -- 96
2020-01-27 21:00:00 9.4 4 Sur 26 Sur 0.2 -- -- 95
2020-01-27 20:00:00 9.3 6 Sur 21 Sur 0.6 -- -- 94
2020-01-27 19:00:00 9.5 6 Sur 17 Sur 0.4 -- -- 93
2020-01-27 18:00:00 9.7 6 Sur 19 Sur 0.2 -- -- 93
2020-01-27 17:00:00 9.8 5 Sudoeste 20 Sur 0.4 -- -- 94
2020-01-27 16:00:00 10.1 5 Sur 23 Sudoeste 0 -- -- 90
2020-01-27 15:00:00 9.7 6 Sudoeste 25 Oeste 0 -- -- 90
2020-01-27 14:00:00 9.7 6 Sudoeste 23 Noroeste 0.4 -- -- 91
2020-01-27 13:00:00 10.3 6 Sudoeste 25 Oeste 0 -- -- 83
2020-01-27 12:00:00 9.3 3 Sudoeste 12 Oeste 0 -- -- 89
2020-01-27 11:00:00 8.9 5 Sudoeste 20 Oeste 0 -- -- 91
2020-01-27 10:00:00 8.6 2 Sudoeste 18 Oeste 0 -- -- 93
2020-01-27 09:00:00 8.8 0 Calma 12 Oeste 0.6 -- -- 97
2020-01-27 08:00:00 8.7 0 Calma 17 Oeste 5.4 -- -- 96
2020-01-27 07:00:00 8.7 3 Sudoeste 23 Sur 2.4 -- -- 96
2020-01-27 06:00:00 8.6 5 Sur 23 Sur 1.2 -- -- 95
2020-01-27 05:00:00 8.7 7 Sur 20 Sur 1.2 -- -- 93
2020-01-27 04:00:00 8.7 9 Sur 32 Sur 1.6 -- -- 91
2020-01-27 03:00:00 8.6 8 Sur 28 Sur 0.8 -- -- 89
2020-01-27 02:00:00 8.9 6 Sur 22 Sur 0.2 -- -- 85
2020-01-27 01:00:00 9.5 6 Sur 22 Sudeste 0 -- -- 79
2020-01-27 00:00:00 9.3 6 Sur 27 Sudeste 0 -- -- 78
2020-01-26 23:00:00 9.1 4 Sur 17 Sur 0 -- -- 78
2020-01-26 22:00:00 9.6 5 Sur 20 Sur 0 -- -- 75
2020-01-26 21:00:00 9.5 5 Sur 21 Sur 0 -- -- 76
2020-01-26 20:00:00 9.9 6 Sur 25 Sur 0 -- -- 75
2020-01-26 19:00:00 9.8 6 Sur 21 Sudeste 0 -- -- 75
2020-01-26 18:00:00 10.2 5 Sur 22 Sur 0 -- -- 74
2020-01-26 17:00:00 10.6 5 Sur 24 Sur 0 -- -- 73
2020-01-26 16:00:00 10.9 5 Sudoeste 27 Sur 0 -- -- 72
2020-01-26 15:00:00 10.7 5 Sur 19 Sur 0 -- -- 73
2020-01-26 14:00:00 10.9 5 Sur 25 Sudeste 0 -- -- 71
2020-01-26 13:00:00 10.4 7 Sur 26 Sur 0 -- -- 74
2020-01-26 12:00:00 8.8 6 Sur 20 Sur 0 -- -- 80
2020-01-26 11:00:00 6.6 4 Sur 12 Sudoeste 0 -- -- 95
2020-01-26 10:00:00 2.6 4 Sudeste 10 Sudeste 0 -- -- 97
2020-01-26 09:00:00 2.5 4 Sudeste 9 Sudeste 0 -- -- 97
2020-01-26 08:00:00 2.5 5 Sudeste 10 Sudeste 0 -- -- 97
2020-01-26 07:00:00 1.8 3 Sudeste 8 Sudeste 0 -- -- 97
2020-01-26 06:00:00 1.6 4 Sudeste 8 Sudeste 0 -- -- 96
2020-01-26 05:00:00 2.2 4 Sudeste 11 Sudeste 0 -- -- 96
2020-01-26 04:00:00 2.6 4 Sudeste 10 Sur 0 -- -- 96
2020-01-26 03:00:00 3.2 3 Sudeste 6 Sudeste 0 -- -- 95
2020-01-26 02:00:00 2.2 2 Sudeste 5 Sudeste 0 -- -- 94
2020-01-26 01:00:00 2 0 Calma 4 Noroeste 0 -- -- 93
2020-01-26 00:00:00 2.9 0 Calma 5 Sudeste 0 -- -- 93
2020-01-25 23:00:00 3.7 0 Calma 5 Noroeste 0 -- -- 91
2020-01-25 22:00:00 4.2 2 Noroeste 9 Noroeste 0 -- -- 90
2020-01-25 21:00:00 4.8 3 Noroeste 6 Noroeste 0 -- -- 88
2020-01-25 20:00:00 6.7 2 Noroeste 5 Noroeste 0 -- -- 83
2020-01-25 19:00:00 8.5 0 Calma 3 Noroeste 0 -- -- 77
2020-01-25 18:00:00 9.7 0 Calma 6 Oeste 0 -- -- 70
2020-01-25 17:00:00 10.8 0 Calma 5 Oeste 0 -- -- 61
2020-01-25 16:00:00 11.1 2 Noroeste 6 Noroeste 0 -- -- 56
2020-01-25 15:00:00 11.5 3 Noroeste 8 Noroeste 0 -- -- 58
2020-01-25 14:00:00 10.6 0 Calma 6 Oeste 0 -- -- 71
2020-01-25 13:00:00 9.2 0 Calma 5 Este 0 -- -- 82
2020-01-25 12:00:00 5.6 0 Calma 5 Sudeste 0 -- -- 93
2020-01-25 11:00:00 3 2 Sudeste 5 Sudeste 0 -- -- 97
2020-01-25 10:00:00 0.6 2 Este 4 Sudeste 0 -- -- 97
2020-01-25 09:00:00 0 0 Calma 2 Noroeste 0 -- -- 97
2020-01-25 08:00:00 -0.4 0 Calma 4 Noroeste 0 -- -- 97
2020-01-25 07:00:00 -0.4 0 Calma 4 Noroeste 0 -- -- 97
2020-01-25 06:00:00 -0.2 0 Calma 3 Noroeste 0 -- -- 96
2020-01-25 05:00:00 0.6 0 Calma 4 Sudeste 0 -- -- 95
2020-01-25 04:00:00 0.7 0 Calma 4 Noroeste 0 -- -- 95
2020-01-25 03:00:00 1.6 0 Calma 4 Noroeste 0 -- -- 94
2020-01-25 02:00:00 2.6 0 Calma 4 Noroeste 0 -- -- 94
2020-01-25 01:00:00 3.3 0 Calma 4 Noroeste 0 -- -- 92
2020-01-25 00:00:00 4.6 2 Noroeste 5 Noroeste 0 -- -- 91
2020-01-24 23:00:00 5.9 0 Calma 6 Noroeste 0 -- -- 89
2020-01-24 22:00:00 7.6 0 Calma 4 Este 0 -- -- 84
2020-01-24 21:00:00 8.5 0 Calma 5 Este 0 -- -- 77
2020-01-24 20:00:00 9.4 0 Calma 6 Oeste 0 -- -- 74
2020-01-24 19:00:00 10.2 0 Calma 7 Sudeste 0 -- -- 69
2020-01-24 18:00:00 11.1 2 Sur 8 Oeste 0 -- -- 64
2020-01-24 17:00:00 12.3 5 Sudoeste 15 Oeste 0 -- -- 59
2020-01-24 16:00:00 11.9 3 Sur 13 Sudeste 0 -- -- 65
2020-01-24 15:00:00 11.5 4 Sudeste 9 Sudeste 0 -- -- 66
2020-01-24 14:00:00 10.4 3 Este 8 Este 0 -- -- 73
2020-01-24 13:00:00 6.9 3 Sudeste 8 Sudeste 0 -- -- 89
2020-01-24 12:00:00 4.2 3 Sudeste 6 Sudeste 0 -- -- 94
2020-01-24 11:00:00 3.5 2 Sudeste 4 Sudeste 0 -- -- 96
2020-01-24 10:00:00 1.3 0 Calma 5 Noroeste 0 -- -- 98
2020-01-24 09:00:00 0.9 0 Calma 3 Sudeste 0 -- -- 97
2020-01-24 08:00:00 0.6 0 Calma -- -- 0 -- -- 97
2020-01-24 07:00:00 0.6 0 Calma 4 Sur 0 -- -- 97
2020-01-24 06:00:00 0.8 2 Sur 8 Sudeste 0 -- -- 97
2020-01-24 05:00:00 1.2 0 Calma 0 Calma 0 -- -- 96
2020-01-24 04:00:00 1.5 0 Calma 2 Sudeste 0 -- -- 96
2020-01-24 03:00:00 1.6 0 Calma 3 Noroeste 0 -- -- 96
2020-01-24 02:00:00 2.4 0 Calma 5 Este 0 -- -- 95
2020-01-24 01:00:00 2.8 2 Sudeste 5 Sur 0 -- -- 95
2020-01-24 00:00:00 3.4 0 Calma 3 Norte 0 -- -- 94
2020-01-23 23:00:00 3.8 2 Noroeste 5 Noroeste 0 -- -- 93
2020-01-23 22:00:00 4.7 0 Calma 5 Noroeste 0 -- -- 90
2020-01-23 21:00:00 5.9 2 Noroeste 6 Noroeste 0 -- -- 87
2020-01-23 20:00:00 7.5 3 Noroeste 16 Nordeste 0 -- -- 83
2020-01-23 19:00:00 9.1 5 Norte 13 Norte 0 -- -- 77
2020-01-23 18:00:00 11 3 Noroeste 10 Nordeste 0 -- -- 69
2020-01-23 17:00:00 11.2 2 Noroeste 10 Noroeste 0 -- -- 71
2020-01-23 16:00:00 10.4 5 Norte 11 Noroeste 0 -- -- 74
2020-01-23 15:00:00 9 3 Oeste 9 Oeste 0 -- -- 88
2020-01-23 14:00:00 7 3 Oeste 6 Noroeste 0 -- -- 91
2020-01-23 13:00:00 5.1 3 Sudeste 5 Este 0 -- -- 95
2020-01-23 12:00:00 3.4 0 Calma 4 Sudeste 0 -- -- 97
2020-01-23 11:00:00 1.9 0 Calma 7 Noroeste 0.2 -- -- 98
2020-01-23 10:00:00 1.1 0 Calma 4 Oeste 0 -- -- 97
2020-01-23 09:00:00 0.9 0 Calma 5 Noroeste 0 -- -- 97
2020-01-23 08:00:00 1.5 0 Calma 4 Norte 0 -- -- 97
2020-01-23 07:00:00 1.6 2 Noroeste 7 Noroeste 0 -- -- 96
2020-01-23 06:00:00 2.1 3 Noroeste 7 Noroeste 0 -- -- 95
2020-01-23 05:00:00 3.2 4 Noroeste 17 Noroeste 0 -- -- 94
2020-01-23 04:00:00 3.5 6 Norte 14 Norte 0 -- -- 95
2020-01-23 03:00:00 3.6 6 Norte 15 Norte 0 -- -- 96
2020-01-23 02:00:00 4.1 3 Noroeste 7 Norte 0 -- -- 94
2020-01-23 01:00:00 5.4 0 Calma 10 Nordeste 0 -- -- 92
2020-01-23 00:00:00 6.2 5 Norte 12 Nordeste 0 -- -- 91
2020-01-22 23:00:00 6.5 6 Nordeste 12 Nordeste 0 -- -- 90
2020-01-22 22:00:00 6.7 0 Calma 17 Nordeste 0.2 -- -- 90
2020-01-22 21:00:00 7 8 Norte 20 Norte 0.4 -- -- 90
2020-01-22 20:00:00 7.7 6 Norte 26 Nordeste 0.2 -- -- 88
2020-01-22 19:00:00 8.3 6 Norte 24 Este 0 -- -- 78
2020-01-22 18:00:00 8.9 6 Nordeste 27 Nordeste 0 -- -- 73
2020-01-22 17:00:00 9.5 12 Nordeste 38 Nordeste 0 -- -- 72
2020-01-22 16:00:00 9.8 13 Nordeste 30 Este 0 -- -- 72
2020-01-22 15:00:00 10.1 17 Nordeste 38 Nordeste 0 -- -- 68
2020-01-22 14:00:00 10.9 16 Nordeste 37 Nordeste 0 -- -- 69
2020-01-22 13:00:00 10.3 13 Nordeste 36 Este 0 -- -- 76
2020-01-22 12:00:00 10.6 17 Nordeste 39 Nordeste 0 -- -- 69
2020-01-22 11:00:00 10.3 16 Nordeste 44 Este 0 -- -- 68
2020-01-22 10:00:00 9 8 Este 27 Este 0 -- -- 75
2020-01-22 09:00:00 7.9 4 Norte 21 Nordeste 0 -- -- 83
2020-01-22 08:00:00 8.4 7 Nordeste 28 Nordeste 0 -- -- 80
2020-01-22 07:00:00 8.8 13 Nordeste 32 Nordeste 0 -- -- 74
2020-01-22 06:00:00 8.5 9 Nordeste 27 Nordeste 0 -- -- 76
2020-01-22 05:00:00 8.2 12 Nordeste 28 Nordeste 0 -- -- 75
2020-01-22 04:00:00 7.7 8 Nordeste 28 Nordeste 0 -- -- 76
2020-01-22 03:00:00 7.1 4 Nordeste 37 Nordeste 0 -- -- 75
2020-01-22 02:00:00 6.7 15 Nordeste 35 Norte 0 -- -- 73
2020-01-22 01:00:00 6.4 10 Nordeste 37 Nordeste 0 -- -- 71
2020-01-22 00:00:00 6.4 10 Nordeste 26 Este 0 -- -- 68
2020-01-21 23:00:00 5.8 8 Nordeste 36 Este 0 -- -- 74
2020-01-21 22:00:00 5.9 15 Nordeste 33 Nordeste 0 -- -- 74
2020-01-21 21:00:00 6.1 14 Nordeste 32 Nordeste 0 -- -- 70
2020-01-21 20:00:00 6.2 12 Nordeste 44 Nordeste 0 -- -- 72
2020-01-21 19:00:00 6.3 10 Nordeste 39 Nordeste 0 -- -- 72
2020-01-21 18:00:00 7 15 Nordeste 49 Nordeste 0 -- -- 69
2020-01-21 17:00:00 7.3 17 Nordeste 37 Este 0 -- -- 69
2020-01-21 16:00:00 7.4 12 Nordeste 40 Nordeste 0 -- -- 69
2020-01-21 15:00:00 7.6 21 Nordeste 51 Nordeste 0 -- -- 67
2020-01-21 14:00:00 7.1 20 Nordeste 40 Nordeste 0 -- -- 68
2020-01-21 13:00:00 8 10 Nordeste 53 Este 0 -- -- 66
2020-01-21 12:00:00 7.5 15 Nordeste 39 Nordeste 0 -- -- 67
2020-01-21 11:00:00 6.5 13 Nordeste 28 Nordeste 0 -- -- 71
2020-01-21 10:00:00 4.9 6 Nordeste 23 Nordeste 0 -- -- 77
2020-01-21 09:00:00 4.5 8 Nordeste 32 Este 0 -- -- 77
2020-01-21 08:00:00 4.1 10 Nordeste 25 Nordeste 0 -- -- 78
2020-01-21 07:00:00 3.4 3 Norte 22 Norte 0 -- -- 83
2020-01-21 06:00:00 3.7 5 Nordeste 25 Nordeste 0 -- -- 79
2020-01-21 05:00:00 3.7 6 Norte 14 Este 0 -- -- 76
2020-01-21 04:00:00 3.9 3 Nordeste 19 Nordeste 0 -- -- 72
2020-01-21 03:00:00 4 6 Nordeste 15 Este 0 -- -- 70
2020-01-21 02:00:00 3.6 5 Nordeste 20 Norte 0 -- -- 71
2020-01-21 01:00:00 3.5 4 Norte 24 Nordeste 0 -- -- 69
2020-01-21 00:00:00 3.7 9 Nordeste 27 Este 0 -- -- 68
2020-01-20 23:00:00 3.5 7 Nordeste 27 Nordeste 0 -- -- 69
2020-01-20 22:00:00 3.6 12 Nordeste 31 Nordeste 0 -- -- 68
2020-01-20 21:00:00 3.6 8 Nordeste 35 Nordeste 0 -- -- 64
2020-01-20 20:00:00 4.1 10 Nordeste 37 Nordeste 0 -- -- 62
2020-01-20 19:00:00 4.6 8 Nordeste 39 Este 0 -- -- 60
2020-01-20 18:00:00 5.5 18 Nordeste 44 Este 0 -- -- 56
2020-01-20 17:00:00 6.2 18 Este 46 Este 0 -- -- 59
2020-01-20 16:00:00 7.1 20 Este 49 Nordeste 0 -- -- 55
2020-01-20 15:00:00 7 21 Este 54 Nordeste 0 -- -- 52
2020-01-20 14:00:00 6.7 24 Nordeste 70 Nordeste 0 -- -- 53
2020-01-20 13:00:00 6 27 Nordeste 58 Nordeste 0 -- -- 61
2020-01-20 12:00:00 6.4 19 Nordeste 45 Nordeste 0 -- -- 56
2020-01-20 11:00:00 6.2 15 Este 35 Este 0 -- -- 56
2020-01-20 10:00:00 4.9 12 Nordeste 31 Nordeste 0 -- -- 62
2020-01-20 09:00:00 4.3 9 Este 39 Nordeste 0 -- -- 65
2020-01-20 08:00:00 4 10 Nordeste 27 Nordeste 0 -- -- 67
2020-01-20 07:00:00 3.9 6 Nordeste 25 Nordeste 0 -- -- 74
2020-01-20 06:00:00 4.1 7 Nordeste 20 Este 0 -- -- 77
2020-01-20 05:00:00 4.6 4 Nordeste 22 Este 0 -- -- 69
2020-01-20 04:00:00 4.1 12 Este 30 Sudeste 0 -- -- 77
2020-01-20 03:00:00 4.9 13 Este 37 Este 0 -- -- 73
2020-01-20 02:00:00 5.6 13 Este 37 Este 0 -- -- 62
2020-01-20 01:00:00 5.8 12 Este 36 Este 0 -- -- 61
2020-01-20 00:00:00 5.4 11 Este 35 Sudeste 0 -- -- 60
2020-01-19 23:00:00 5.2 12 Este 33 Norte 0 -- -- 61
2020-01-19 22:00:00 4.9 12 Este 34 Este 0 -- -- 63
2020-01-19 21:00:00 4.9 8 Nordeste 34 Nordeste 0 -- -- 62
2020-01-19 20:00:00 5 8 Nordeste 27 Nordeste 0 -- -- 62
2020-01-19 19:00:00 5.6 6 Nordeste 30 Nordeste 0 -- -- 65
2020-01-19 18:00:00 7 12 Nordeste 37 Nordeste 0 -- -- 59
2020-01-19 17:00:00 7.9 16 Nordeste 35 Nordeste 0 -- -- 56
2020-01-19 16:00:00 8.7 11 Nordeste 34 Norte 0 -- -- 58
2020-01-19 15:00:00 9.1 14 Nordeste 42 Este 0 -- -- 56
2020-01-19 14:00:00 9.3 13 Nordeste 51 Este 0 -- -- 60
2020-01-19 13:00:00 8.8 12 Nordeste 28 Este 0 -- -- 66
2020-01-19 12:00:00 7.9 13 Nordeste 31 Este 0 -- -- 71
2020-01-19 11:00:00 7.5 9 Nordeste 30 Norte 0 -- -- 72
2020-01-19 10:00:00 6 10 Nordeste 31 Nordeste 0 -- -- 78
2020-01-19 09:00:00 5.7 8 Norte 25 Norte 0 -- -- 82
2020-01-19 08:00:00 6.2 12 Nordeste 42 Este 0 -- -- 85
2020-01-19 07:00:00 6.5 13 Nordeste 37 Nordeste 0 -- -- 87
2020-01-19 06:00:00 6.6 9 Nordeste 33 Nordeste 0 -- -- 89
2020-01-19 05:00:00 7 13 Nordeste 32 Norte 0.2 -- -- 91
2020-01-19 04:00:00 7.5 11 Nordeste 32 Norte 0.2 -- -- 94
2020-01-19 03:00:00 7.6 9 Norte 23 Norte 0.2 -- -- 96
2020-01-19 02:00:00 6.9 6 Noroeste 18 Noroeste 0 -- -- 97
2020-01-19 01:00:00 6.5 4 Noroeste 9 Noroeste 0 -- -- 97
2020-01-19 00:00:00 6.5 0 Calma 3 Oeste 0 -- -- 96
2020-01-18 23:00:00 6.6 0 Calma 5 Sudeste 0.4 -- -- 96
2020-01-18 22:00:00 6.6 2 Sudeste 6 Sudeste 0.2 -- -- 95
2020-01-18 21:00:00 6.6 4 Sudeste 9 Sur 1.6 -- -- 95
2020-01-18 20:00:00 6.8 3 Este 8 Sur 2 -- -- 93
2020-01-18 19:00:00 7 3 Sudeste 10 Sudoeste 0 -- -- 91
2020-01-18 18:00:00 6.9 2 Oeste 45 Noroeste 1.2 -- -- 89
2020-01-18 17:00:00 9.7 6 Noroeste 27 Noroeste 0 -- -- 73
2020-01-18 16:00:00 9.5 12 Oeste 28 Noroeste 0 -- -- 78
2020-01-18 15:00:00 8.7 9 Noroeste 37 Noroeste 1.2 -- -- 87
2020-01-18 14:00:00 11.2 18 Oeste 42 Oeste 1.4 -- -- 86
2020-01-18 13:00:00 12.4 5 Sudoeste 22 Oeste 0 -- -- 85
2020-01-18 12:00:00 10.8 5 Sudoeste 26 Sur 0 -- -- 81
2020-01-18 11:00:00 9.9 4 Sur 25 Sur 0 -- -- 78
2020-01-18 10:00:00 9.3 9 Sur 27 Sur 0 -- -- 78
2020-01-18 09:00:00 8.9 7 Sur 31 Sudeste 0 -- -- 79
2020-01-18 08:00:00 8.8 9 Sur 26 Sur 0 -- -- 78
2020-01-18 07:00:00 7.7 4 Sudeste 15 Sudeste 0 -- -- 79
2020-01-18 06:00:00 6.8 5 Sur 15 Sur 0 -- -- 79
2020-01-18 05:00:00 6.9 6 Sur 17 Sudeste 0 -- -- 76
2020-01-18 04:00:00 7.1 5 Sudeste 12 Sudeste 0 -- -- 75
2020-01-18 03:00:00 6.8 4 Sur 18 Sur 0 -- -- 76
2020-01-18 02:00:00 5.9 4 Sur 13 Sudeste 0 -- -- 85
2020-01-18 01:00:00 6.4 4 Sudeste 9 Sudeste 0 -- -- 81
2020-01-18 00:00:00 6.4 3 Sudeste 8 Sudeste 0 -- -- 83
2020-01-17 23:00:00 6.7 4 Sudeste 10 Sudeste 0 -- -- 83
2020-01-17 22:00:00 6.2 0 Calma 7 Sudeste 0 -- -- 88
2020-01-17 21:00:00 6.4 3 Sudeste 7 Sudeste 0 -- -- 88
2020-01-17 20:00:00 6.6 2 Sur 8 Sudeste 0 -- -- 87
2020-01-17 19:00:00 7 3 Sudeste 5 Sudeste 0 -- -- 84
2020-01-17 18:00:00 7.7 0 Calma 4 Sudeste 0 -- -- 76
2020-01-17 17:00:00 8.4 0 Calma 17 Sudoeste 0 -- -- 73
2020-01-17 16:00:00 8.6 7 Oeste 18 Oeste 0 -- -- 67
2020-01-17 15:00:00 8.7 11 Sudoeste 20 Oeste 0 -- -- 69
2020-01-17 14:00:00 8.2 6 Oeste 22 Oeste 0 -- -- 74
2020-01-17 13:00:00 7.8 6 Oeste 17 Oeste 0 -- -- 75
2020-01-17 12:00:00 7 5 Sudoeste 23 Oeste 0 -- -- 83
2020-01-17 11:00:00 6.7 5 Sudoeste 13 Sudoeste 0.2 -- -- 86
2020-01-17 10:00:00 4.5 3 Sudoeste 9 Oeste 0 -- -- 96
2020-01-17 09:00:00 3.8 0 Calma 12 Noroeste 0 -- -- 94
2020-01-17 08:00:00 4.6 5 Oeste 15 Oeste 1 -- -- 94
2020-01-17 07:00:00 4.9 2 Sudeste 5 Sudeste 0 -- -- 94
2020-01-17 06:00:00 4.6 0 Calma 5 Oeste 0 -- -- 92
2020-01-17 05:00:00 5.8 0 Calma 15 Sudoeste 0 -- -- 90
2020-01-17 04:00:00 6.5 0 Calma 22 Oeste 0 -- -- 92
2020-01-17 03:00:00 6.6 3 Sudoeste 22 Oeste 0 -- -- 91
2020-01-17 02:00:00 6.9 7 Oeste 24 Oeste 1.4 -- -- 94
2020-01-17 01:00:00 7.2 2 Sudoeste 12 Oeste 0.2 -- -- 94
2020-01-17 00:00:00 7.3 2 Sur 11 Sudeste 0 -- -- 95
2020-01-16 23:00:00 7.5 3 Sudeste 12 Sur 0 -- -- 95
2020-01-16 22:00:00 7.6 3 Sur 11 Sur 0 -- -- 96
2020-01-16 21:00:00 7.5 2 Sudoeste 10 Sur 0 -- -- 96
2020-01-16 20:00:00 7.6 4 Sudeste 11 Sudeste 0.6 -- -- 95
2020-01-16 19:00:00 7.5 0 Calma 33 Oeste 5.8 -- -- 95
2020-01-16 18:00:00 7.8 12 Oeste 49 Oeste 6 -- -- 93
2020-01-16 17:00:00 10.7 9 Sur 34 Sur 0.2 -- -- 75
2020-01-16 16:00:00 11.6 9 Sudoeste 39 Sur 0 -- -- 73
2020-01-16 15:00:00 12.2 8 Sudoeste 33 Sur 0.4 -- -- 75
2020-01-16 14:00:00 11.9 9 Sur 33 Sur 0.2 -- -- 83
2020-01-16 13:00:00 12.5 11 Sur 44 Sudeste 0 -- -- 81
2020-01-16 12:00:00 13.1 12 Sur 40 Sur 0 -- -- 78
2020-01-16 11:00:00 12.3 9 Sur 27 Sur 0 -- -- 81
2020-01-16 10:00:00 12.5 7 Sudoeste 28 Sur 0 -- -- 79
2020-01-16 09:00:00 12.4 11 Sur 36 Sur 0 -- -- 78
2020-01-16 08:00:00 11.8 9 Sur 32 Sur 0 -- -- 84
2020-01-16 07:00:00 11.5 8 Sur 30 Sur 0.4 -- -- 89
2020-01-16 06:00:00 11.4 6 Sudoeste 24 Sur 0.4 -- -- 93
2020-01-16 05:00:00 11.6 8 Sur 27 Oeste 0.4 -- -- 91
2020-01-16 04:00:00 12.8 8 Sur 23 Sur 0 -- -- 77
2020-01-16 03:00:00 11.8 6 Sur 24 Sudeste 0 -- -- 77
2020-01-16 02:00:00 12 7 Sur 21 Sur 0 -- -- 75
2020-01-16 01:00:00 12.2 7 Sur 22 Sur 0 -- -- 78
2020-01-16 00:00:00 11.6 2 Sur 19 Sudeste 0 -- -- 80
2020-01-15 23:00:00 10.8 5 Sudeste 13 Sur 0 -- -- 80
2020-01-15 22:00:00 9.4 0 Calma 10 Sudeste 0 -- -- 84
2020-01-15 21:00:00 8.8 3 Sur 13 Sudeste 0 -- -- 85
2020-01-15 20:00:00 9.4 5 Sur 12 Sur 0 -- -- 85
2020-01-15 19:00:00 10.1 2 Sur 9 Sur 0 -- -- 82
2020-01-15 18:00:00 11.6 3 Sur 12 Sudoeste 0 -- -- 80
2020-01-15 17:00:00 12.6 3 Sudoeste 18 Oeste 0 -- -- 74
2020-01-15 16:00:00 12.2 6 Sudoeste 24 Oeste 0 -- -- 75
2020-01-15 15:00:00 11.5 5 Sudoeste 22 Oeste 0 -- -- 76
2020-01-15 14:00:00 11.8 7 Sur 19 Sur 0 -- -- 78
2020-01-15 13:00:00 10.7 3 Sur 11 Oeste 0 -- -- 81
2020-01-15 12:00:00 9.2 6 Oeste 17 Oeste 0 -- -- 87
2020-01-15 11:00:00 8.4 0 Calma 7 Oeste 0.2 -- -- 95
2020-01-15 10:00:00 8.2 0 Calma 13 Noroeste 0 -- -- 95
2020-01-15 09:00:00 9 0 Calma 14 Oeste 0.4 -- -- 95
2020-01-15 08:00:00 9.5 3 Oeste 36 Noroeste 5.6 -- -- 95
2020-01-15 07:00:00 10 4 Sur 28 Sudeste 0.2 -- -- 95
2020-01-15 06:00:00 9.9 9 Sur 26 Sur 5.4 -- -- 95
2020-01-15 05:00:00 9.9 7 Sur 28 Oeste 3.2 -- -- 93
2020-01-15 04:00:00 11 9 Sur 33 Sur 0 -- -- 81
2020-01-15 03:00:00 10.9 9 Sur 35 Sudeste 0 -- -- 80
2020-01-15 02:00:00 10.8 9 Sur 31 Sur 0 -- -- 82
2020-01-15 01:00:00 11 9 Sur 31 Sur 0 -- -- 80
2020-01-15 00:00:00 10.9 9 Sur 36 Sur 0 -- -- 76
2020-01-14 23:00:00 10.7 8 Sur 40 Sur 0 -- -- 76
2020-01-14 22:00:00 10.5 12 Sur 35 Sur 0 -- -- 73
2020-01-14 21:00:00 10.4 9 Sur 24 Sur 0 -- -- 73
2020-01-14 20:00:00 10.5 8 Sur 27 Sur 0 -- -- 75
2020-01-14 19:00:00 10.8 7 Sur 28 Sudeste 0 -- -- 73
2020-01-14 18:00:00 10.6 7 Sur 26 Sudeste 0 -- -- 75
2020-01-14 17:00:00 10.8 10 Sur 33 Sur 0 -- -- 78
2020-01-14 16:00:00 11.2 8 Sur 37 Sur 0 -- -- 76
2020-01-14 15:00:00 12.9 8 Sur 33 Sur 0 -- -- 64
2020-01-14 14:00:00 13.2 10 Sudoeste 35 Oeste 0 -- -- 61
2020-01-14 13:00:00 11.7 8 Sur 38 Sur 0 -- -- 68
2020-01-14 12:00:00 11.8 9 Sudoeste 28 Sur 0 -- -- 69
2020-01-14 11:00:00 11.1 8 Sur 29 Sur 0 -- -- 71
2020-01-14 10:00:00 10.1 8 Sur 25 Sudeste 0 -- -- 73
2020-01-14 09:00:00 9.7 10 Sur 27 Sur 0 -- -- 76
2020-01-14 08:00:00 9.6 8 Sur 23 Sur 0 -- -- 76
2020-01-14 07:00:00 9.6 10 Sur 34 Sudeste 0 -- -- 76
2020-01-14 06:00:00 9.6 10 Sur 34 Sur 0 -- -- 78
2020-01-14 05:00:00 9.6 8 Sur 37 Sur 0 -- -- 78
2020-01-14 04:00:00 9.6 10 Sur 31 Sur 0 -- -- 78
2020-01-14 03:00:00 9.6 9 Sur 29 Sur 0 -- -- 79
2020-01-14 02:00:00 9.4 9 Sur 29 Sur 0 -- -- 78
2020-01-14 01:00:00 9.4 8 Sur 28 Sur 0 -- -- 78
2020-01-14 00:00:00 9.3 7 Sur 30 Sur 0 -- -- 78
2020-01-13 23:00:00 9.1 10 Sur 33 Sur 0 -- -- 78
2020-01-13 22:00:00 8.5 12 Sur 34 Sudoeste 0 -- -- 77
2020-01-13 21:00:00 8.3 11 Sur 41 Sudeste 0 -- -- 77
2020-01-13 20:00:00 8.6 8 Sudoeste 30 Sur 0 -- -- 72
2020-01-13 19:00:00 8.9 7 Sudoeste 26 Sur 0 -- -- 72
2020-01-13 18:00:00 9.5 4 Sudoeste 25 Oeste 0 -- -- 67
2020-01-13 17:00:00 10.3 6 Sudoeste 26 Sur 0 -- -- 61
2020-01-13 16:00:00 10.4 7 Sur 25 Sur 0.2 -- -- 57
2020-01-13 15:00:00 9.8 8 Sur 26 Sur 0 -- -- 56
2020-01-13 14:00:00 10 6 Sur 25 Sur 0 -- -- 55
2020-01-13 13:00:00 10 7 Sur 25 Sur 0 -- -- 57
2020-01-13 12:00:00 8.8 6 Sudoeste 24 Sur 0 -- -- 62
2020-01-13 11:00:00 6.7 4 Sur 13 Sudeste 0 -- -- 73
2020-01-13 10:00:00 4.9 6 Sudeste 14 Sudeste 0 -- -- 79
2020-01-13 09:00:00 4.9 4 Sudeste 13 Este 0 -- -- 79
2020-01-13 08:00:00 5.2 2 Sudeste 9 Este 0 -- -- 79
2020-01-13 07:00:00 5.4 4 Este 13 Sudeste 0 -- -- 80
2020-01-13 06:00:00 4.7 4 Sudeste 11 Sudeste 0 -- -- 85
2020-01-13 05:00:00 4.5 4 Sudeste 11 Sudeste 0 -- -- 85
2020-01-13 04:00:00 4.9 4 Sudeste 13 Sudeste 0 -- -- 84
2020-01-13 03:00:00 5.6 4 Sudeste 13 Sudeste 0 -- -- 81
2020-01-13 02:00:00 5.7 4 Sudeste 12 Sudeste 0 -- -- 83
2020-01-13 01:00:00 6 3 Sudeste 11 Sudeste 0 -- -- 82
2020-01-13 00:00:00 6 6 Sudeste 11 Sudeste 0 -- -- 83
2020-01-12 23:00:00 5.8 6 Sudeste 13 Sudeste 0 -- -- 86
2020-01-12 22:00:00 6 3 Sudeste 9 Sudeste 0 -- -- 85
2020-01-12 21:00:00 7 2 Sudeste 5 Sudeste 0 -- -- 85
2020-01-12 20:00:00 7 0 Calma 4 Noroeste 0 -- -- 82
2020-01-12 19:00:00 8.4 0 Calma 7 Sudeste 0 -- -- 75
2020-01-12 18:00:00 10.3 3 Sudeste 10 Sudeste 0 -- -- 67
2020-01-12 17:00:00 11.4 4 Sudeste 10 Sudeste 0 -- -- 63
2020-01-12 16:00:00 10.9 4 Sur 9 Sudeste 0 -- -- 63
2020-01-12 15:00:00 9.7 4 Sudeste 8 Sur 0 -- -- 66
2020-01-12 14:00:00 8.6 5 Sudeste 13 Sudeste 0 -- -- 71
2020-01-12 13:00:00 6.8 7 Sudeste 13 Sudeste 0 -- -- 80
2020-01-12 12:00:00 2.9 7 Sudeste 13 Sudeste 0 -- -- 91
2020-01-12 11:00:00 0.4 5 Sudeste 10 Sudeste 0 -- -- 97
2020-01-12 10:00:00 -1.7 6 Sudeste 12 Sudeste 0 -- -- 98
2020-01-12 09:00:00 -1.7 4 Sudeste 8 Este 0 -- -- 98
2020-01-12 08:00:00 -1.9 2 Sudeste 8 Sudeste 0 -- -- 98
2020-01-12 07:00:00 -1.7 4 Sudeste 9 Sudeste 0 -- -- 98
2020-01-12 06:00:00 -1.8 4 Sudeste 10 Sudeste 0 -- -- 97
2020-01-12 05:00:00 -1.4 3 Sudeste 6 Sudeste 0 -- -- 97
2020-01-12 04:00:00 -1.1 3 Sudeste 8 Sudeste 0 -- -- 97
2020-01-12 03:00:00 -0.6 0 Calma 8 Este 0 -- -- 96
2020-01-12 02:00:00 0.4 4 Sudeste 8 Sudeste 0 -- -- 96
2020-01-12 01:00:00 0.3 4 Sudeste 8 Este 0 -- -- 95
2020-01-12 00:00:00 1.2 3 Sudeste 8 Sudeste 0 -- -- 95
2020-01-11 23:00:00 2 3 Sudeste 5 Sudeste 0 -- -- 94
2020-01-11 22:00:00 2.6 0 Calma 3 Sudeste 0 -- -- 92
2020-01-11 21:00:00 4 0 Calma 4 Sudeste 0 -- -- 89
2020-01-11 20:00:00 5.6 0 Calma 3 Sudeste 0 -- -- 87
2020-01-11 19:00:00 7 0 Calma 6 Sudeste 0 -- -- 78
2020-01-11 18:00:00 8.7 3 Sudeste 10 Sudeste 0 -- -- 73
2020-01-11 17:00:00 9.6 5 Sudeste 15 Sudeste 0 -- -- 71
2020-01-11 16:00:00 9.2 5 Sudeste 12 Sur 0 -- -- 77
2020-01-11 15:00:00 7.1 6 Sudeste 13 Sudeste 0 -- -- 88
2020-01-11 14:00:00 5.5 5 Sudeste 13 Sudeste 0 -- -- 96
2020-01-11 13:00:00 2.6 8 Sudeste 14 Sudeste 0 -- -- 98
2020-01-11 12:00:00 0.6 5 Sudeste 9 Sudeste 0 -- -- 99
2020-01-11 11:00:00 -0.1 5 Sudeste 12 Sudeste 0 -- -- 99
2020-01-11 10:00:00 -1 6 Sudeste 11 Sudeste 0 -- -- 99
2020-01-11 09:00:00 -1.1 5 Sudeste 10 Sudeste 0 -- -- 99
2020-01-11 08:00:00 -1 4 Sudeste 9 Sudeste 0 -- -- 98
2020-01-11 07:00:00 -0.5 3 Sudeste 10 Sudeste 0 -- -- 98
2020-01-11 06:00:00 -0.1 4 Sudeste 9 Sudeste 0 -- -- 98
2020-01-11 05:00:00 0.2 4 Sudeste 9 Sudeste 0 -- -- 98
2020-01-11 04:00:00 1.1 4 Sudeste 8 Sudeste 0 -- -- 97
2020-01-11 03:00:00 1.8 3 Sudeste 8 Sudeste 0 -- -- 97
2020-01-11 02:00:00 1.8 2 Sudeste 6 Sudeste 0 -- -- 97
2020-01-11 01:00:00 1.3 0 Calma 2 Sur 0 -- -- 96
2020-01-11 00:00:00 1.3 0 Calma 4 Noroeste 0 -- -- 95
2020-01-10 23:00:00 2.2 0 Calma 8 Noroeste 0 -- -- 95
2020-01-10 22:00:00 3.3 3 Noroeste 6 Noroeste 0 -- -- 94
2020-01-10 21:00:00 4.3 3 Noroeste 6 Noroeste 0 -- -- 92
2020-01-10 20:00:00 5.5 2 Noroeste 8 Norte 0 -- -- 88
2020-01-10 19:00:00 7 3 Norte 10 Nordeste 0 -- -- 82
2020-01-10 18:00:00 8.5 3 Nordeste 14 Este 0 -- -- 75
2020-01-10 17:00:00 9.3 7 Nordeste 18 Nordeste 0 -- -- 73
2020-01-10 16:00:00 9.1 5 Nordeste 19 Nordeste 0 -- -- 71
2020-01-10 15:00:00 9.3 8 Nordeste 21 Nordeste 0 -- -- 76
2020-01-10 14:00:00 8.6 8 Nordeste 18 Norte 0 -- -- 81
2020-01-10 13:00:00 7.4 4 Norte 13 Norte 0 -- -- 95
2020-01-10 12:00:00 4.8 4 Noroeste 7 Noroeste 0 -- -- 97
2020-01-10 11:00:00 3.3 0 Calma 6 Oeste 0 -- -- 98
2020-01-10 10:00:00 2.7 0 Calma 3 Noroeste 0 -- -- 98
2020-01-10 09:00:00 2.1 0 Calma 4 Noroeste 0 -- -- 98
2020-01-10 08:00:00 2.1 0 Calma 5 Noroeste 0.2 -- -- 97
2020-01-10 07:00:00 2.7 0 Calma 3 Noroeste 0 -- -- 97
2020-01-10 06:00:00 2.3 0 Calma 5 Sudeste 0 -- -- 96
2020-01-10 05:00:00 3.7 0 Calma 4 Sudeste 0 -- -- 96
2020-01-10 04:00:00 3.5 0 Calma 6 Sudeste 0 -- -- 96
2020-01-10 03:00:00 3.7 0 Calma 4 Sudeste 0.2 -- -- 95
2020-01-10 02:00:00 3.5 2 Sudeste 6 Sudeste 0 -- -- 94
2020-01-10 01:00:00 4.2 3 Sudeste 6 Este 0 -- -- 93
2020-01-10 00:00:00 5.2 2 Noroeste 12 Oeste 0 -- -- 91
2020-01-09 23:00:00 4.8 0 Calma 6 Oeste 0 -- -- 89
2020-01-09 22:00:00 5.8 4 Oeste 8 Oeste 0 -- -- 89
2020-01-09 21:00:00 5.4 2 Oeste 12 Noroeste 0 -- -- 87
2020-01-09 20:00:00 6.5 8 Oeste 19 Oeste 0 -- -- 83
2020-01-09 19:00:00 6.9 4 Noroeste 13 Noroeste 0 -- -- 80
2020-01-09 18:00:00 8.5 4 Oeste 15 Oeste 0 -- -- 75
2020-01-09 17:00:00 9.3 7 Oeste 21 Oeste 0 -- -- 74
2020-01-09 16:00:00 9 12 Oeste 33 Noroeste 0.2 -- -- 80
2020-01-09 15:00:00 8.6 12 Oeste 49 Sudoeste 1.2 -- -- 90
2020-01-09 14:00:00 11.3 21 Oeste 47 Oeste 0.4 -- -- 82
2020-01-09 13:00:00 13 5 Sudoeste 26 Oeste 0 -- -- 85
2020-01-09 12:00:00 12.3 9 Sur 29 Sur 0 -- -- 88
2020-01-09 11:00:00 11.5 5 Sur 23 Sudeste 0 -- -- 92
2020-01-09 10:00:00 11.1 7 Sur 24 Sur 0 -- -- 94
2020-01-09 09:00:00 11.3 5 Sudoeste 17 Sur 0 -- -- 91
2020-01-09 08:00:00 10.8 6 Sur 18 Sur 0 -- -- 92
2020-01-09 07:00:00 10.7 5 Sur 18 Sur 0 -- -- 93
2020-01-09 06:00:00 10.6 5 Sur 15 Sudeste 0 -- -- 93
2020-01-09 05:00:00 10.5 2 Sudoeste 12 Sur 0 -- -- 92
2020-01-09 04:00:00 10.1 4 Sur 11 Sur 0 -- -- 91
2020-01-09 03:00:00 10.1 4 Sudeste 12 Sudeste 0 -- -- 87
2020-01-09 02:00:00 10 4 Sudeste 11 Sudeste 0 -- -- 84
2020-01-09 01:00:00 10.3 6 Sudeste 12 Sudeste 0 -- -- 83
2020-01-09 00:00:00 10.7 7 Sudeste 12 Este 0 -- -- 82
2020-01-08 23:00:00 10.9 4 Sudeste 9 Sudeste 0 -- -- 84
2020-01-08 22:00:00 11.2 4 Sudeste 9 Sudeste 0 -- -- 84
2020-01-08 21:00:00 12.3 4 Sudoeste 11 Oeste 0 -- -- 90
2020-01-08 20:00:00 11.9 0 Calma 4 Sudoeste 0 -- -- 79
2020-01-08 19:00:00 12.5 2 Sudeste 5 Sudeste 0 -- -- 79
2020-01-08 18:00:00 13.2 0 Calma 3 Sudeste 0 -- -- 80
2020-01-08 17:00:00 13.8 0 Calma 10 Oeste 0 -- -- 80
2020-01-08 16:00:00 14 2 Oeste 8 Sudeste 0 -- -- 71
2020-01-08 15:00:00 13.6 4 Sudeste 10 Sudeste 0 -- -- 65
2020-01-08 14:00:00 13 4 Sudeste 9 Sudeste 0 -- -- 56
2020-01-08 13:00:00 10.9 5 Sudeste 12 Sudeste 0 -- -- 57
2020-01-08 12:00:00 8.3 7 Sudeste 14 Este 0 -- -- 71
2020-01-08 11:00:00 5.8 8 Sudeste 14 Sudeste 0 -- -- 81
2020-01-08 10:00:00 5 5 Sudeste 9 Sudeste 0 -- -- 81
2020-01-08 09:00:00 4.7 3 Sudeste 13 Sudeste 0 -- -- 82
2020-01-08 08:00:00 4.7 7 Sudeste 12 Sudeste 0 -- -- 82
2020-01-08 07:00:00 4.6 6 Sudeste 13 Sudeste 0 -- -- 84
2020-01-08 06:00:00 4.2 7 Sudeste 12 Sudeste 0 -- -- 86
2020-01-08 05:00:00 4.1 5 Sudeste 12 Sur 0 -- -- 84
2020-01-08 04:00:00 4.8 6 Sudeste 12 Sudeste 0 -- -- 79
2020-01-08 03:00:00 4.8 3 Sudeste 8 Sudeste 0 -- -- 86
2020-01-08 02:00:00 3.8 6 Sudeste 13 Sudeste 0 -- -- 89
2020-01-08 01:00:00 4 8 Sudeste 14 Sudeste 0 -- -- 87
2020-01-08 00:00:00 4.7 4 Sudeste 8 Sudeste 0 -- -- 87
2020-01-07 23:00:00 5.2 2 Sudeste 5 Sudeste 0 -- -- 87
2020-01-07 22:00:00 5.1 0 Calma 4 Noroeste 0 -- -- 87
2020-01-07 21:00:00 5.9 2 Sudeste 6 Sudeste 0 -- -- 84
2020-01-07 20:00:00 6.7 0 Calma 7 Sudeste 0 -- -- 79
2020-01-07 19:00:00 8.7 4 Sudeste 9 Sudeste 0 -- -- 71
2020-01-07 18:00:00 10.3 4 Sudeste 10 Sudeste 0 -- -- 62
2020-01-07 17:00:00 11.2 5 Sudeste 9 Sudeste 0 -- -- 57
2020-01-07 16:00:00 10.7 6 Sudeste 14 Sudeste 0 -- -- 60
2020-01-07 15:00:00 9.2 6 Sudeste 15 Sudeste 0 -- -- 66
2020-01-07 14:00:00 7.8 7 Sudeste 14 Sudeste 0 -- -- 72
2020-01-07 13:00:00 6.2 6 Sudeste 11 Sudeste 0 -- -- 84
2020-01-07 12:00:00 3.4 4 Sudeste 12 Este 0.2 -- -- 93
2020-01-07 11:00:00 1 4 Sudeste 11 Sudeste 0 -- -- 98
2020-01-07 10:00:00 -1.8 6 Sudeste 14 Sudeste 0 -- -- 99
2020-01-07 09:00:00 -2.2 5 Sudeste 10 Sudeste 0 -- -- 99
2020-01-07 08:00:00 -2.1 6 Sudeste 12 Sudeste 0 -- -- 99
2020-01-07 07:00:00 -1.9 2 Sudeste 10 Este 0 -- -- 99
2020-01-07 06:00:00 -1.7 5 Sudeste 10 Sudeste 0 -- -- 99
2020-01-07 05:00:00 -1.3 5 Sudeste 9 Sudeste 0 -- -- 99
2020-01-07 04:00:00 -1.1 4 Sudeste 8 Sudeste 0 -- -- 98
2020-01-07 03:00:00 -0.7 3 Sudeste 8 Sudeste 0 -- -- 98
2020-01-07 02:00:00 -0.7 5 Sudeste 9 Sudeste 0 -- -- 98
2020-01-07 01:00:00 -0.8 0 Calma 3 Sur 0 -- -- 97
2020-01-07 00:00:00 0.1 0 Calma 4 Sudeste 0 -- -- 96
2020-01-06 23:00:00 1 3 Sudeste 8 Sudeste 0 -- -- 96
2020-01-06 22:00:00 1.2 0 Calma 3 Sudeste 0 -- -- 95
2020-01-06 21:00:00 2.3 0 Calma 4 Sudeste 0 -- -- 94
2020-01-06 20:00:00 3.4 0 Calma 8 Sudeste 0 -- -- 93
2020-01-06 19:00:00 4.7 0 Calma 4 Sur 0 -- -- 90
2020-01-06 18:00:00 6.1 2 Sur 4 Sudeste 0 -- -- 86
2020-01-06 17:00:00 6.9 3 Sudeste 6 Este 0 -- -- 86
2020-01-06 16:00:00 5.8 0 Calma 15 Sudeste 0 -- -- 92
2020-01-06 15:00:00 4.5 8 Sudeste 16 Sudeste 0 -- -- 95
2020-01-06 14:00:00 2.7 9 Sudeste 15 Sudeste 0 -- -- 98
2020-01-06 13:00:00 1.2 4 Sudeste 9 Sudeste 0 -- -- 98
2020-01-06 12:00:00 0.3 4 Sudeste 8 Sudeste 0 -- -- 98
2020-01-06 11:00:00 -0.6 0 Calma -- -- 0 -- -- 99
2020-01-06 10:00:00 -1.9 0 Calma -- -- 0 -- -- 99